West Hyannisport, MA (02672)

7:04 PM EDT on August 27, 2015 (GMT -0400)
Megan Road | | Change Station
CLOSE
Current Station
Personal Weather Station
Location: Barnstable, MA
Elevation: 56 ft
Nearby Weather Stations

Elev 56 ft 41.66 °N, 70.30 °W | Updated 4 minutes ago

Clear
Clear
74.1 °F
Feels Like 75 °F
N
0.0
Wind Variable Wind from SW
Gusts 0.0 mph

Today
High -- | Low -- °F
--% Chance of Precip.
Yesterday
High -- | Low -- °F
Precip. -- in
6:01 AM 7:23 PM
Waxing Gibbous, 95% visible
Pressure 29.99 in
Visibility 10.0 miles
Clouds Clear
Heat Index 75 °F
Dew Point 67 °F
Humidity 78%
Rainfall 0.00 in
Snow Depth Not available.
UV 0.0 out of 12
Pollen 10.00 out of 12
Air Quality Not available.
Flu Activity Not available.
METAR KHYA 272256Z 23008KT 10SM CLR 23/17 A2998 RMK AO2 SLP153 T02330167
Pressure 29.99 in
Visibility 10.0 miles
Clouds Clear
Heat Index 75 °F
Dew Point 67 °F
Humidity 78%
Rainfall 0.00 in
Snow Depth Not available.
UV 0.0 out of 12
Pollen 10.00 out of 12
Air Quality Not available.
Flu Activity Not available.
METAR KHYA 272256Z 23008KT 10SM CLR 23/17 A2998 RMK AO2 SLP153 T02330167

10-Day Weather Forecast

×

Almanac

Astronomy

Aug. 27, 2015 Rise Set
Actual Time
Civil Twilight
Nautical Twilight
Astronomical Twilight
Moon
Length of Visible Light
Length of Day
Tomorrow will be .
, % of the Moon is Illuminated

Today's Extremes

State Highs State Lows

Community

WunderPhotos

Upload Photos

1,850,256 photos uploaded!

WunderBlogs® & News

Nearby

Air Quality

  Air Quality AQ Index Pollutant
Not available.

Snow Depth

Station Depth Elevation

Earthquake Activity

City Distance Mag. Time & Date
Minimum magnitude displayed is 2.5.

Coastal Water Temperatures

Place Temperature

Stations

Nearby Weather Stations

Station Location Temp. Windchill Dew Point Humidity Wind Precip. Elev Updated Type